Terminal Aerodrome Forecast
Issued by NWS Brownsville, TX

Home | Current Version | Previous Version | Text Only | Print | Product List | Glossary On
Versions: 1 2 3 4 5 6 7 8 9 10 11 12 13 14
000
FTUS44 KBRO 011725
TAFMFE
TAF
KMFE 011725Z 0118/0218 19012G19KT P6SM SCT150
     FM020200 35003KT 6SM BR SCT040
     FM020600 36020G30KT P6SM RA VCTS BKN030CB
     FM021000 02017G25KT P6SM -RA VCSH BKN022=

USA.gov is the U.S. government's official web portal to all federal, state and local government web resources and services.